Time;durP1;ratioP1;P1;durP2;ratioP2;P2;SDS_P1;SDS_P2;PMS_P1;PMS_P2;Temp;Humidity;BMP_temperature;BMP_pressure;BME280_temperature;BME280_humidity;BME280_pressure;Samples;Min_cycle;Max_cycle;Signal;HPM_P1;HPM_P2
2022/04/17 00:01:02;;;;;;;;;7.00;6.00;;;;;17.99;45.57;102296.94;5058678;28;45657;-82
2022/04/17 00:03:28;;;;;;;;;4.00;4.00;;;;;17.92;45.30;102287.94;5058576;28;46223;-83
2022/04/17 00:05:53;;;;;;;;;5.75;3.75;;;;;17.92;45.20;102290.56;5058403;28;45837;-82
2022/04/17 00:08:19;;;;;;;;;4.50;4.00;;;;;17.89;45.18;102282.59;5058843;28;45325;-80
2022/04/17 00:10:46;;;;;;;;;5.00;4.00;;;;;17.92;44.64;102296.69;5058529;28;45533;-81
2022/04/17 00:13:12;;;;;;;;;5.00;5.00;;;;;17.87;44.77;102292.97;5040580;28;45609;-81
2022/04/17 00:15:37;;;;;;;;;4.50;3.75;;;;;17.83;45.28;102288.47;5058621;28;45693;-76
2022/04/17 00:18:03;;;;;;;;;4.00;4.00;;;;;17.76;44.78;102273.38;5058855;28;45335;-82
2022/04/17 00:20:28;;;;;;;;;4.75;3.00;;;;;17.74;44.59;102275.03;5046146;28;45311;-78
2022/04/17 00:22:54;;;;;;;;;2.75;2.75;;;;;17.66;44.66;102269.50;5065461;28;45935;-81
2022/04/17 00:25:20;;;;;;;;;3.25;3.25;;;;;17.67;44.56;102273.91;5058626;28;45386;-81
2022/04/17 00:27:46;;;;;;;;;3.25;1.75;;;;;17.67;44.63;102287.00;5058230;28;45415;-80
2022/04/17 00:30:12;;;;;;;;;4.00;3.00;;;;;17.60;44.45;102270.13;5058507;28;45494;-80
2022/04/17 00:32:38;;;;;;;;;3.75;3.00;;;;;17.60;44.39;102272.75;5057883;28;45283;-76
2022/04/17 00:35:05;;;;;;;;;7.00;4.75;;;;;17.59;44.22;102275.34;5039740;28;45650;-81
2022/04/17 00:37:31;;;;;;;;;2.50;2.50;;;;;17.51;44.19;102261.00;5039798;28;45270;-81
2022/04/17 00:39:57;;;;;;;;;3.75;3.50;;;;;17.52;44.17;102275.91;5058123;28;45305;-80
2022/04/17 00:42:23;;;;;;;;;4.00;4.00;;;;;17.48;44.07;102265.31;5057906;28;46171;-80
2022/04/17 00:44:48;;;;;;;;;3.25;3.25;;;;;17.49;44.38;102269.69;5039410;28;45492;-79
2022/04/17 00:47:16;;;;;;;;;6.75;5.00;;;;;17.49;44.15;102274.06;5057841;28;45349;-80
2022/04/17 00:49:45;;;;;;;;;6.25;4.00;;;;;17.46;44.04;102271.31;5057834;28;45523;-80
2022/04/17 00:52:12;;;;;;;;;4.25;4.25;;;;;17.39;44.22;102272.78;5057536;28;45274;-80
2022/04/17 00:54:46;;;;;;;;;5.00;5.00;;;;;17.40;44.41;102271.97;5057506;28;45412;-77
2022/04/17 00:57:15;;;;;;;;;4.00;4.00;;;;;17.39;44.51;102267.56;5057873;28;45308;-79
2022/04/17 00:59:42;;;;;;;;;7.00;6.00;;;;;17.35;44.46;102259.50;5057808;28;45436;-80
2022/04/17 01:02:08;;;;;;;;;5.00;5.00;;;;;17.30;44.40;102262.88;5057532;28;45608;-75
2022/04/17 01:04:34;;;;;;;;;4.00;4.00;;;;;17.21;44.48;102258.97;5060881;28;45268;-80
2022/04/17 01:06:59;;;;;;;;;6.00;6.00;;;;;17.25;44.48;102266.13;5064444;28;45285;-81
2022/04/17 01:09:25;;;;;;;;;6.25;5.00;;;;;17.18;44.67;102259.75;5064230;28;45182;-79
2022/04/17 01:11:52;;;;;;;;;7.25;6.25;;;;;17.14;44.54;102253.50;5039509;28;45818;-80
2022/04/17 01:14:20;;;;;;;;;4.00;4.00;;;;;17.10;44.91;102248.94;5057454;28;45468;-80
2022/04/17 01:16:46;;;;;;;;;4.00;4.00;;;;;17.07;44.71;102248.81;5057291;28;45369;-80
2022/04/17 01:19:12;;;;;;;;;5.00;5.00;;;;;17.10;44.76;102254.19;5057413;28;45576;-80
2022/04/17 01:21:39;;;;;;;;;8.50;8.50;;;;;17.07;45.18;102237.47;5056867;28;45629;-79
2022/04/17 01:26:58;;;;;;;;;10.75;10.75;;;;;17.05;44.69;102246.97;5056859;28;45249;-79
2022/04/17 01:29:34;;;;;;;;;13.75;11.50;;;;;16.98;44.92;102249.34;5057482;28;45328;-79
2022/04/17 01:32:04;;;;;;;;;20.25;18.75;;;;;16.91;45.01;102242.03;5056727;28;45995;-79
2022/04/17 01:34:30;;;;;;;;;33.00;27.25;;;;;16.76;45.03;102212.63;5057087;28;45419;-78
2022/04/17 01:36:56;;;;;;;;;35.00;30.50;;;;;16.75;45.79;102232.63;5056812;28;45394;-79
2022/04/17 01:39:22;;;;;;;;;36.25;33.50;;;;;16.75;45.62;102235.25;5057342;28;45349;-78
2022/04/17 01:41:50;;;;;;;;;35.50;29.75;;;;;16.72;45.43;102235.16;5038397;28;45627;-79
2022/04/17 01:44:16;;;;;;;;;35.50;31.75;;;;;16.75;45.66;102240.47;5038618;28;45299;-79
2022/04/17 01:46:43;;;;;;;;;34.00;30.50;;;;;16.70;46.27;102236.78;5056631;28;45349;-78
2022/04/17 01:49:08;;;;;;;;;30.25;26.75;;;;;16.71;45.82;102229.00;5057070;28;45407;-78
2022/04/17 01:51:38;;;;;;;;;29.25;25.25;;;;;16.71;45.59;102236.84;5059008;28;46082;-78
2022/04/17 01:54:06;;;;;;;;;19.00;19.00;;;;;16.67;45.47;102244.50;5064298;28;45174;-78
2022/04/17 01:56:32;;;;;;;;;19.75;17.50;;;;;16.62;45.81;102233.84;5059529;28;45329;-80
2022/04/17 01:58:57;;;;;;;;;15.75;15.75;;;;;16.52;46.08;102219.47;5057476;28;46153;-80
2022/04/17 02:01:23;;;;;;;;;14.25;11.25;;;;;16.54;45.60;102238.75;5056695;28;45965;-81
2022/04/17 02:03:49;;;;;;;;;8.50;8.25;;;;;16.47;45.59;102228.84;5056371;28;45297;-79
2022/04/17 02:06:14;;;;;;;;;13.50;8.25;;;;;16.47;45.81;102230.56;5056781;28;45453;-80
2022/04/17 02:08:42;;;;;;;;;5.00;5.00;;;;;16.45;45.67;102229.63;5056656;28;45307;-79
2022/04/17 02:11:07;;;;;;;;;6.00;6.00;;;;;16.37;46.05;102216.22;5038442;28;46321;-76
2022/04/17 02:13:34;;;;;;;;;5.50;5.50;;;;;16.39;45.63;102218.06;5056747;28;45174;-81
2022/04/17 02:15:59;;;;;;;;;7.25;5.00;;;;;16.40;45.43;102214.63;5038319;28;45433;-80
2022/04/17 02:18:26;;;;;;;;;5.00;4.75;;;;;16.36;45.49;102206.59;5056621;28;45606;-80
2022/04/17 02:20:53;;;;;;;;;5.00;4.00;;;;;16.40;45.33;102216.34;5055904;28;45351;-80
2022/04/17 02:23:20;;;;;;;;;5.50;4.50;;;;;16.37;45.28;102214.47;5056143;28;45414;-81
2022/04/17 02:25:45;;;;;;;;;5.75;5.00;;;;;16.39;45.26;102210.22;5055912;28;45438;-81
2022/04/17 02:28:13;;;;;;;;;7.00;6.75;;;;;16.33;44.67;102212.59;5038445;28;45551;-79
2022/04/17 02:30:40;;;;;;;;;5.00;5.00;;;;;16.32;44.98;102205.56;5055707;28;45709;-80
2022/04/17 02:33:05;;;;;;;;;8.00;4.00;;;;;16.23;45.04;102202.56;5056422;28;45245;-80
2022/04/17 02:35:31;;;;;;;;;4.75;4.75;;;;;16.24;45.00;102206.97;5056226;28;45221;-80
2022/04/17 02:37:56;;;;;;;;;5.25;5.25;;;;;16.15;45.02;102196.97;5059895;28;45239;-79
2022/04/17 02:40:22;;;;;;;;;5.75;5.75;;;;;16.19;45.04;102200.63;5061903;28;45927;-81
2022/04/17 02:42:53;;;;;;;;;6.25;5.00;;;;;16.12;44.76;102191.63;5056125;28;45671;-78
2022/04/17 02:45:22;;;;;;;;;4.75;4.75;;;;;16.07;44.94;102193.16;5040605;28;45217;-79
2022/04/17 02:47:50;;;;;;;;;6.75;5.75;;;;;15.98;44.99;102190.13;5056606;28;45230;-76
2022/04/17 02:50:18;;;;;;;;;4.50;4.50;;;;;16.01;44.65;102206.81;5055935;28;45440;-78
2022/04/17 02:52:45;;;;;;;;;6.75;5.50;;;;;16.00;44.88;102199.81;5055636;28;45240;-81
2022/04/17 02:55:12;;;;;;;;;5.25;3.75;;;;;15.96;44.66;102197.00;5056032;28;45347;-79
2022/04/17 02:57:38;;;;;;;;;5.00;4.50;;;;;15.94;45.01;102186.47;5058694;28;45399;-77
2022/04/17 03:00:06;;;;;;;;;5.50;4.75;;;;;15.81;44.96;102173.66;5059822;28;46022;-81
2022/04/17 03:05:38;;;;;;;;;5.00;5.00;;;;;15.86;44.61;102187.84;5059667;28;45236;-79
2022/04/17 03:08:08;;;;;;;;;5.50;5.50;;;;;15.83;44.32;102185.97;5059815;28;45308;-80
2022/04/17 03:10:41;;;;;;;;;4.25;4.00;;;;;15.80;44.27;102196.25;5041410;28;45516;-78
2022/04/17 03:13:08;;;;;;;;;5.25;5.25;;;;;15.75;44.13;102193.44;5061701;28;45783;-79
2022/04/17 03:15:36;;;;;;;;;5.50;5.50;;;;;15.65;44.30;102175.56;5059908;28;45347;-77
2022/04/17 03:18:02;;;;;;;;;5.50;5.00;;;;;15.62;44.24;102180.63;5059264;28;45397;-77
2022/04/17 03:20:28;;;;;;;;;5.00;4.00;;;;;15.63;44.31;102185.03;5059767;28;45451;-78
2022/04/17 03:22:54;;;;;;;;;5.00;5.00;;;;;15.53;44.36;102165.47;5059876;28;45272;-77
2022/04/17 03:25:20;;;;;;;;;4.00;4.00;;;;;15.60;44.85;102185.78;5063503;28;45232;-82
2022/04/17 03:27:46;;;;;;;;;7.75;5.25;;;;;15.53;44.45;102172.38;5062002;28;45484;-80
2022/04/17 03:30:15;;;;;;;;;4.50;4.50;;;;;15.59;44.72;102183.13;5060195;28;46167;-81
2022/04/17 03:32:44;;;;;;;;;4.50;4.50;;;;;15.59;44.93;102181.41;5040763;28;45720;-77
2022/04/17 03:35:11;;;;;;;;;5.25;5.00;;;;;15.55;44.61;102174.22;5059027;28;45229;-77
2022/04/17 03:37:37;;;;;;;;;5.25;5.00;;;;;15.54;44.32;102185.53;5041429;28;45674;-78
2022/04/17 03:40:04;;;;;;;;;3.50;3.50;;;;;15.54;44.66;102182.00;5059240;28;45902;-75
2022/04/17 03:42:29;;;;;;;;;4.25;4.25;;;;;15.54;45.07;102187.22;5058649;28;45810;-75
2022/04/17 03:44:55;;;;;;;;;4.25;4.25;;;;;15.55;44.97;102181.19;5040406;28;45269;-76
2022/04/17 03:47:21;;;;;;;;;4.50;4.50;;;;;15.53;44.51;102177.59;5058750;28;46063;-75
2022/04/17 03:49:47;;;;;;;;;6.75;5.00;;;;;15.53;45.06;102175.91;5058536;28;45316;-75
2022/04/17 03:52:13;;;;;;;;;7.25;6.25;;;;;15.47;44.80;102165.16;5058567;28;45388;-78
2022/04/17 03:54:38;;;;;;;;;5.50;4.75;;;;;15.43;45.08;102158.91;5058434;28;45288;-77
2022/04/17 03:57:04;;;;;;;;;5.00;5.00;;;;;15.37;45.43;102161.25;5040932;28;45502;-77
2022/04/17 03:59:31;;;;;;;;;5.25;5.25;;;;;15.29;45.47;102157.34;5058182;28;46165;-80
2022/04/17 04:01:58;;;;;;;;;6.25;5.75;;;;;15.25;45.50;102147.63;5058355;28;45701;-77
2022/04/17 04:04:23;;;;;;;;;7.00;7.00;;;;;15.29;45.40;102165.19;5040536;28;45415;-75
2022/04/17 04:06:50;;;;;;;;;5.75;5.25;;;;;15.27;45.66;102178.16;5058733;28;45340;-77
2022/04/17 04:09:16;;;;;;;;;6.00;5.75;;;;;15.17;45.47;102157.69;5060161;28;45410;-76
2022/04/17 04:11:44;;;;;;;;;12.50;11.00;;;;;15.15;46.11;102160.22;5042101;28;45906;-76
2022/04/17 04:14:10;;;;;;;;;13.50;13.50;;;;;15.11;45.82;102166.09;5040795;28;45413;-80
2022/04/17 04:16:36;;;;;;;;;6.50;6.00;;;;;15.03;45.60;102154.41;5059314;28;45265;-76
2022/04/17 04:19:05;;;;;;;;;6.00;6.00;;;;;14.97;45.97;102151.50;5057888;28;45271;-75
2022/04/17 04:21:30;;;;;;;;;9.75;7.00;;;;;14.93;45.38;102167.84;5058328;28;45918;-76
2022/04/17 04:23:56;;;;;;;;;7.75;7.00;;;;;14.85;46.03;102167.47;5057938;28;45327;-77
2022/04/17 04:26:22;;;;;;;;;8.00;8.00;;;;;14.71;46.84;102156.34;5058403;28;45315;-76
2022/04/17 04:28:48;;;;;;;;;4.00;4.00;;;;;14.71;46.30;102153.75;5057509;28;46037;-77
2022/04/17 04:31:14;;;;;;;;;5.00;5.00;;;;;14.68;46.33;102161.41;5057802;28;45379;-77
2022/04/17 04:33:42;;;;;;;;;6.25;6.00;;;;;14.67;46.19;102162.22;5058056;28;45352;-80
2022/04/17 04:36:11;;;;;;;;;5.75;5.75;;;;;14.51;45.84;102151.00;5058900;28;46222;-76
2022/04/17 04:38:38;;;;;;;;;7.75;7.00;;;;;14.40;45.84;102137.44;5058246;28;46116;-77
2022/04/17 04:41:04;;;;;;;;;7.00;7.00;;;;;14.47;46.74;102149.06;5040178;28;45712;-77
2022/04/17 04:43:29;;;;;;;;;4.50;4.50;;;;;14.53;45.78;102159.78;5057761;28;45314;-78
2022/04/17 04:46:07;;;;;;;;;5.25;5.25;;;;;14.48;45.92;102152.53;5058206;28;45443;-80
2022/04/17 04:51:19;;;;;;;;;4.50;4.00;;;;;14.45;46.44;102157.63;5057567;28;45522;-79
2022/04/17 04:53:45;;;;;;;;;6.00;5.00;;;;;14.46;46.58;102160.28;5060732;28;45375;-77
2022/04/17 04:56:12;;;;;;;;;6.25;5.50;;;;;14.47;47.17;102166.41;5042186;28;45438;-77
2022/04/17 04:58:38;;;;;;;;;7.00;7.00;;;;;14.43;46.65;102160.13;5057528;28;45980;-76
2022/04/17 05:01:04;;;;;;;;;10.00;9.75;;;;;14.47;46.14;102172.50;5057793;28;45201;-76
2022/04/17 05:03:29;;;;;;;;;7.00;7.00;;;;;14.40;46.14;102155.66;5057668;28;45361;-79
2022/04/17 05:05:55;;;;;;;;;6.00;6.00;;;;;14.41;45.86;102172.22;5057614;28;45444;-80
2022/04/17 05:08:21;;;;;;;;;10.00;10.00;;;;;14.39;46.69;102179.06;5057357;28;45547;-78
2022/04/17 05:10:49;;;;;;;;;7.50;6.00;;;;;14.37;46.62;102181.56;5056966;28;45346;-79
2022/04/17 05:13:17;;;;;;;;;13.25;11.00;;;;;14.35;46.73;102177.09;5057395;28;45360;-78
2022/04/17 05:15:42;;;;;;;;;5.75;5.75;;;;;14.27;46.61;102168.88;5057623;28;45488;-77
2022/04/17 05:18:08;;;;;;;;;5.75;5.75;;;;;14.26;46.70;102171.41;5057261;28;46085;-78
2022/04/17 05:20:34;;;;;;;;;6.50;6.00;;;;;14.27;46.73;102179.28;5040390;28;45524;-77
2022/04/17 05:23:48;;;;;;;;;11.00;9.00;;;;;14.26;47.65;102185.31;5057790;28;45486;-77
2022/04/17 05:25:54;;;;;;;;;13.50;13.50;;;;;14.28;47.50;102180.22;5043047;28;45436;-79
2022/04/17 05:28:21;;;;;;;;;6.75;6.25;;;;;14.22;47.15;102181.66;5056946;28;46061;-79
2022/04/17 05:30:47;;;;;;;;;11.75;9.25;;;;;14.25;48.24;102183.56;5056688;28;45363;-77
2022/04/17 05:33:13;;;;;;;;;7.75;7.75;;;;;14.27;47.60;102186.22;5057191;28;45318;-76
2022/04/17 05:35:39;;;;;;;;;9.50;9.50;;;;;14.23;48.32;102179.97;5057369;28;45508;-75
2022/04/17 05:38:05;;;;;;;;;15.00;12.00;;;;;14.17;48.29;102177.94;5058723;28;45379;-76
2022/04/17 05:40:37;;;;;;;;;13.50;13.50;;;;;14.17;48.63;102179.63;5058029;28;45403;-76
2022/04/17 05:43:04;;;;;;;;;8.75;7.75;;;;;14.16;48.24;102178.75;5039620;28;45555;-76
2022/04/17 05:45:30;;;;;;;;;11.00;10.75;;;;;14.20;48.68;102178.06;5057567;28;45490;-76
2022/04/17 05:47:57;;;;;;;;;30.50;23.50;;;;;14.23;48.75;102177.38;5056250;28;45382;-76
2022/04/17 05:50:23;;;;;;;;;23.50;18.50;;;;;14.26;48.13;102181.84;5056747;28;45534;-76
2022/04/17 05:52:49;;;;;;;;;9.75;9.00;;;;;14.24;46.74;102172.22;5056375;28;45260;-75
2022/04/17 05:55:15;;;;;;;;;17.75;16.00;;;;;14.27;47.35;102179.28;5056910;28;45197;-76
2022/04/17 05:57:41;;;;;;;;;18.00;14.75;;;;;14.27;47.37;102181.03;5056029;28;46381;-76
2022/04/17 06:00:08;;;;;;;;;29.50;25.25;;;;;14.27;46.75;102181.03;5056831;28;45905;-77
2022/04/17 06:02:35;;;;;;;;;10.50;8.50;;;;;14.28;45.65;102178.47;5056835;28;45975;-77
2022/04/17 06:05:03;;;;;;;;;35.25;29.50;;;;;14.37;47.13;102191.09;5056547;28;45422;-76
2022/04/17 06:07:29;;;;;;;;;14.25;14.00;;;;;14.39;47.01;102181.66;5038365;28;47165;-80
2022/04/17 06:09:55;;;;;;;;;13.25;10.50;;;;;14.42;46.02;102187.00;5039634;28;45384;-79
2022/04/17 06:12:20;;;;;;;;;21.25;18.50;;;;;14.42;46.87;102188.72;5056700;28;45344;-80
2022/04/17 06:14:46;;;;;;;;;7.00;6.50;;;;;14.37;44.94;102191.09;5056791;28;45358;-81
2022/04/17 06:17:12;;;;;;;;;6.25;5.50;;;;;14.20;45.27;102182.41;5056298;28;45556;-81
2022/04/17 06:19:37;;;;;;;;;6.00;5.25;;;;;14.08;45.10;102173.13;5056223;28;45454;-76
2022/04/17 06:22:04;;;;;;;;;16.25;15.50;;;;;14.15;45.81;102195.19;5057957;28;45385;-78
2022/04/17 06:24:30;;;;;;;;;11.25;11.00;;;;;14.20;45.16;102190.22;5059101;28;45376;-75
2022/04/17 06:26:55;;;;;;;;;11.75;10.25;;;;;14.13;45.04;102177.72;5057668;28;46246;-77
2022/04/17 06:29:21;;;;;;;;;25.50;22.00;;;;;14.09;45.37;102166.25;5039193;28;45546;-81
2022/04/17 06:31:46;;;;;;;;;15.00;14.00;;;;;14.19;45.14;102180.63;5056618;28;45482;-77
2022/04/17 06:34:13;;;;;;;;;55.75;41.50;;;;;14.22;45.68;102180.78;5057186;28;45510;-80
2022/04/17 06:36:39;;;;;;;;;10.25;9.25;;;;;14.11;44.75;102148.06;5056008;28;46082;-80
2022/04/17 06:39:05;;;;;;;;;16.25;14.25;;;;;14.30;45.02;102176.84;5057138;28;45739;-83
2022/04/17 06:41:31;;;;;;;;;11.00;8.75;;;;;14.28;44.55;102175.88;5056958;28;45320;-80
2022/04/17 06:43:56;;;;;;;;;9.50;8.75;;;;;14.19;44.53;102167.59;5058476;28;45395;-82
2022/04/17 06:46:22;;;;;;;;;16.00;13.25;;;;;14.27;43.88;102178.41;5039867;28;46904;-80
2022/04/17 06:48:48;;;;;;;;;11.75;9.75;;;;;14.24;43.43;102173.94;5056569;28;45245;-80
2022/04/17 06:51:14;;;;;;;;;15.50;10.00;;;;;14.31;43.53;102176.03;5055987;28;45359;-78
2022/04/17 06:53:39;;;;;;;;;9.25;7.50;;;;;14.29;43.36;102161.16;5055946;28;45547;-78
2022/04/17 06:56:07;;;;;;;;;8.25;8.00;;;;;14.31;43.24;102157.81;5055995;28;45950;-79
2022/04/17 06:58:33;;;;;;;;;8.00;7.75;;;;;14.38;43.01;102148.59;5055853;28;45454;-79
2022/04/17 07:00:59;;;;;;;;;8.00;7.25;;;;;14.48;42.28;102160.34;5055812;28;45313;-79
2022/04/17 07:03:24;;;;;;;;;10.75;8.00;;;;;14.37;42.34;102139.88;5056061;28;45447;-79
2022/04/17 07:05:50;;;;;;;;;8.00;7.25;;;;;14.48;41.99;102158.66;5037821;28;46455;-79
2022/04/17 07:08:16;;;;;;;;;10.00;9.00;;;;;14.47;41.75;102142.97;5056848;28;45256;-76
2022/04/17 07:10:42;;;;;;;;;10.50;7.75;;;;;14.52;41.93;102152.78;5057153;28;45217;-75
2022/04/17 07:13:11;;;;;;;;;10.25;7.75;;;;;14.48;41.88;102122.19;5040044;28;45438;-78
2022/04/17 07:15:37;;;;;;;;;8.50;6.75;;;;;14.64;41.30;102146.38;5057581;28;46432;-75
2022/04/17 07:18:03;;;;;;;;;10.00;8.00;;;;;14.60;41.29;102128.81;5038322;28;45842;-76
2022/04/17 07:20:30;;;;;;;;;6.50;5.25;;;;;14.60;41.24;102136.66;5055361;28;45253;-77
2022/04/17 07:22:56;;;;;;;;;7.75;7.50;;;;;14.63;41.22;102145.50;5055656;28;45643;-82
2022/04/17 07:25:21;;;;;;;;;9.00;7.50;;;;;14.66;41.40;102147.38;5055789;28;45989;-78
2022/04/17 07:27:49;;;;;;;;;9.75;8.00;;;;;14.62;41.28;102132.41;5037298;28;45960;-77
2022/04/17 07:30:19;;;;;;;;;9.25;9.25;;;;;14.70;41.08;102146.75;5055561;28;45348;-77
2022/04/17 07:32:49;;;;;;;;;10.50;8.75;;;;;14.73;41.90;102141.69;5055518;28;45339;-78
2022/04/17 07:35:17;;;;;;;;;8.75;8.25;;;;;14.71;42.31;102127.69;5055238;28;45491;-78
2022/04/17 07:37:50;;;;;;;;;12.00;11.00;;;;;14.84;42.05;102139.59;5054940;28;45863;-78
2022/04/17 07:40:19;;;;;;;;;15.25;13.00;;;;;14.91;41.29;102138.19;5036980;28;45406;-79
2022/04/17 07:42:46;;;;;;;;;7.00;7.00;;;;;14.89;41.00;102124.16;5056300;28;45495;-76
2022/04/17 07:45:13;;;;;;;;;7.00;7.00;;;;;14.93;41.66;102123.50;5060193;28;45956;-79
2022/04/17 07:47:39;;;;;;;;;11.00;10.50;;;;;14.95;41.54;102121.88;5060401;28;45429;-77
2022/04/17 07:50:07;;;;;;;;;9.25;7.75;;;;;14.94;41.11;102117.47;5060856;28;45316;-77
2022/04/17 07:52:36;;;;;;;;;8.00;7.00;;;;;14.93;41.02;102116.56;5060331;28;45395;-75
2022/04/17 07:55:05;;;;;;;;;11.00;11.00;;;;;14.93;41.47;102110.47;5058296;28;45371;-75
2022/04/17 07:57:55;;;;;;;;;9.00;7.50;;;;;14.95;41.02;102103.63;5058617;28;45908;-79
2022/04/17 08:00:22;;;;;;;;;7.50;7.25;;;;;15.01;41.89;102109.09;5058406;28;45212;-78
2022/04/17 08:03:06;;;;;;;;;11.00;9.25;;;;;15.01;41.17;102110.00;5040248;28;45291;-76
2022/04/17 08:05:35;;;;;;;;;12.75;9.50;;;;;15.06;41.32;102107.63;5057775;28;46064;-79
2022/04/17 08:08:00;;;;;;;;;8.75;8.75;;;;;15.12;41.53;102107.91;5057858;28;45393;-79
2022/04/17 08:10:26;;;;;;;;;9.00;9.00;;;;;15.10;41.62;102106.94;5058432;28;45482;-78
2022/04/17 08:12:52;;;;;;;;;8.00;8.00;;;;;15.06;41.32;102086.75;5058062;28;45362;-79
2022/04/17 08:15:17;;;;;;;;;8.50;8.50;;;;;15.13;40.54;102093.13;5057862;28;45403;-76
2022/04/17 08:17:43;;;;;;;;;13.50;10.00;;;;;15.19;40.86;102093.44;5057608;28;45434;-81
2022/04/17 08:20:09;;;;;;;;;9.50;6.75;;;;;15.24;40.33;102097.13;5057804;28;45408;-79
2022/04/17 08:22:35;;;;;;;;;10.50;10.00;;;;;15.21;40.39;102083.97;5058328;28;45419;-79
2022/04/17 08:25:01;;;;;;;;;8.00;8.00;;;;;15.33;40.27;102091.47;5057560;28;45299;-78
2022/04/17 08:27:26;;;;;;;;;12.50;11.00;;;;;15.36;39.87;102086.38;5057833;28;45194;-75
2022/04/17 08:29:52;;;;;;;;;10.25;9.75;;;;;15.38;40.31;102086.44;5060132;28;45247;-80
2022/04/17 08:32:17;;;;;;;;;8.50;7.25;;;;;15.35;40.10;102074.16;5064258;28;45331;-81
2022/04/17 08:34:43;;;;;;;;;9.00;8.00;;;;;15.43;39.91;102079.72;5058351;28;45253;-75
2022/04/17 08:37:09;;;;;;;;;8.50;7.75;;;;;15.46;40.01;102082.47;5057517;28;45371;-75
2022/04/17 08:39:35;;;;;;;;;8.00;8.00;;;;;15.50;39.64;102084.41;5057814;28;45296;-76
2022/04/17 08:42:02;;;;;;;;;13.25;12.00;;;;;15.54;40.32;102086.34;5057501;28;45574;-75
2022/04/17 08:44:28;;;;;;;;;13.25;11.00;;;;;15.57;40.07;102078.63;5039511;28;47327;-77
2022/04/17 08:46:54;;;;;;;;;9.75;8.00;;;;;15.58;39.36;102074.31;5039318;28;45261;-75
2022/04/17 08:49:21;;;;;;;;;6.50;6.50;;;;;15.68;39.53;102084.31;5058026;28;45301;-80
2022/04/17 08:51:48;;;;;;;;;9.25;8.25;;;;;15.71;38.94;102080.94;5057253;28;45508;-78
2022/04/17 08:54:17;;;;;;;;;6.25;6.25;;;;;15.73;39.36;102076.69;5056134;28;46171;-79
2022/04/17 08:56:43;;;;;;;;;12.00;11.00;;;;;15.73;38.79;102067.13;5038418;28;45462;-78
2022/04/17 08:59:08;;;;;;;;;8.00;6.75;;;;;15.81;38.63;102069.22;5056939;28;45357;-82
2022/04/17 09:01:37;;;;;;;;;5.75;5.75;;;;;15.83;38.27;102059.69;5057576;28;45355;-80
2022/04/17 09:04:05;;;;;;;;;7.00;7.00;;;;;15.91;38.25;102074.91;5059642;28;46688;-82
2022/04/17 09:06:31;;;;;;;;;6.75;6.25;;;;;15.95;37.46;102070.72;5061947;28;45738;-82
2022/04/17 09:09:00;;;;;;;;;6.00;6.00;;;;;15.98;37.44;102070.84;5062379;28;45369;-80
2022/04/17 09:11:28;;;;;;;;;6.25;5.25;;;;;15.99;36.80;102059.56;5057370;28;45241;-82
2022/04/17 09:14:01;;;;;;;;;4.75;4.75;;;;;16.01;37.24;102055.31;5056792;28;45879;-81
2022/04/17 09:16:29;;;;;;;;;7.75;7.75;;;;;16.06;37.84;102055.50;5056969;28;45285;-79
2022/04/17 09:18:57;;;;;;;;;8.25;6.00;;;;;16.13;37.97;102043.59;5021607;28;45276;-78
2022/04/17 09:21:34;;;;;;;;;6.75;5.50;;;;;16.13;36.62;102041.84;5056457;28;45383;-80
2022/04/17 09:24:15;;;;;;;;;7.00;6.00;;;;;16.20;36.18;102051.72;5055621;28;46352;-77
2022/04/17 09:26:51;;;;;;;;;6.50;6.50;;;;;16.14;35.79;102032.31;5037508;28;45474;-79
2022/04/17 09:29:19;;;;;;;;;4.50;4.50;;;;;16.25;35.83;102039.75;5056597;28;45346;-80
2022/04/17 09:31:45;;;;;;;;;7.75;6.25;;;;;16.24;35.43;102039.72;5038198;28;45542;-77
2022/04/17 09:34:11;;;;;;;;;5.00;5.00;;;;;16.26;35.31;102043.25;5056307;28;45309;-81
2022/04/17 09:36:38;;;;;;;;;6.00;5.00;;;;;16.23;35.74;102032.69;5056659;28;45309;-78
2022/04/17 09:39:15;;;;;;;;;9.00;7.50;;;;;16.30;36.23;102034.72;5056855;28;45226;-80
2022/04/17 09:41:54;;;;;;;;;7.00;5.75;;;;;16.35;35.91;102035.81;5057091;28;45352;-77
2022/04/17 09:44:38;;;;;;;;;6.00;6.00;;;;;16.40;35.54;102031.66;5062291;28;46554;-77
2022/04/17 09:47:07;;;;;;;;;8.50;5.50;;;;;16.40;36.71;102017.69;5057670;28;45250;-79
2022/04/17 09:50:08;;;;;;;;;6.75;5.50;;;;;16.50;36.05;102022.47;5056997;28;45751;-79
2022/04/17 09:52:41;;;;;;;;;6.00;5.00;;;;;16.49;36.40;102007.63;5049964;28;45397;-80
2022/04/17 09:55:08;;;;;;;;;8.00;8.00;;;;;16.56;36.53;102009.63;5056503;28;46051;-79
2022/04/17 09:57:36;;;;;;;;;6.50;4.75;;;;;16.62;35.88;102013.31;5055999;28;45893;-78
2022/04/17 10:00:16;;;;;;;;;10.00;8.50;;;;;16.66;35.79;102007.38;5055717;28;45527;-78
2022/04/17 10:02:44;;;;;;;;;5.75;5.75;;;;;16.69;35.53;102004.88;5056044;28;45514;-76
2022/04/17 10:05:12;;;;;;;;;9.00;8.25;;;;;16.73;35.64;102000.66;5055537;28;45363;-77
2022/04/17 10:07:40;;;;;;;;;10.00;7.75;;;;;16.75;35.70;101985.91;5037197;28;45697;-78
2022/04/17 10:10:07;;;;;;;;;9.75;9.25;;;;;16.84;35.89;101986.25;5056094;28;45450;-77
2022/04/17 10:12:36;;;;;;;;;3.75;3.75;;;;;16.88;35.17;101990.78;5056102;28;45503;-78
2022/04/17 10:15:07;;;;;;;;;4.75;4.75;;;;;16.90;35.62;101989.09;5055784;28;46810;-78
2022/04/17 10:17:38;;;;;;;;;6.75;6.00;;;;;16.95;34.99;101982.38;5041917;28;45328;-76
2022/04/17 10:20:14;;;;;;;;;12.00;8.50;;;;;17.00;35.25;101983.44;5060686;28;45518;-79
2022/04/17 10:22:49;;;;;;;;;7.00;5.00;;;;;17.03;34.87;101977.44;5062491;28;45355;-77
2022/04/17 10:25:16;;;;;;;;;11.50;6.25;;;;;17.05;34.06;101974.84;5037635;28;47459;-76
2022/04/17 10:27:46;;;;;;;;;5.75;3.75;;;;;17.10;34.26;101976.81;5037537;28;45396;-75
2022/04/17 10:30:18;;;;;;;;;6.75;4.75;;;;;17.15;34.23;101974.34;5056241;28;45885;-77
2022/04/17 10:33:02;;;;;;;;;8.75;6.50;;;;;17.18;33.60;101972.72;5055948;28;45661;-76
2022/04/17 10:35:53;;;;;;;;;11.00;7.50;;;;;17.16;33.74;101958.72;5055391;28;45885;-77
2022/04/17 10:38:24;;;;;;;;;5.25;3.00;;;;;17.26;32.91;101964.28;5056046;28;45929;-80
2022/04/17 10:41:01;;;;;;;;;4.50;4.00;;;;;17.28;33.41;101953.03;5056017;28;45264;-81
2022/04/17 10:43:42;;;;;;;;;3.50;3.50;;;;;17.34;33.21;101947.13;5056311;28;45351;-81
2022/04/17 10:46:15;;;;;;;;;5.00;5.00;;;;;17.36;32.87;101947.16;5055662;28;46698;-76
2022/04/17 10:49:05;;;;;;;;;11.00;7.25;;;;;17.40;32.84;101943.81;5056260;28;45362;-80
2022/04/17 10:51:35;;;;;;;;;6.75;5.00;;;;;17.46;33.17;101941.41;5056341;28;45309;-81
2022/04/17 10:54:14;;;;;;;;;9.75;7.50;;;;;17.49;32.71;101928.44;5058146;28;45296;-81
2022/04/17 10:57:01;;;;;;;;;10.00;7.25;;;;;17.53;32.53;101935.56;5056906;28;45638;-81
2022/04/17 10:59:34;;;;;;;;;6.50;5.25;;;;;17.52;32.10;101909.31;5042049;28;45690;-80
2022/04/17 11:02:10;;;;;;;;;4.75;4.75;;;;;17.61;32.07;101917.47;5059428;28;45259;-79
2022/04/17 11:04:50;;;;;;;;;6.00;5.00;;;;;17.65;32.35;101906.28;5056731;28;45166;-82
2022/04/17 11:07:15;;;;;;;;;11.00;10.50;;;;;17.73;31.76;101902.16;5055835;28;45443;-75
2022/04/17 11:09:46;;;;;;;;;7.00;7.00;;;;;17.78;32.08;101902.31;5055176;28;45415;-80
2022/04/17 11:12:17;;;;;;;;;9.75;6.75;;;;;17.85;32.07;101901.69;5055413;28;45303;-78
2022/04/17 11:14:54;;;;;;;;;8.25;8.25;;;;;17.91;32.17;101895.75;5055324;28;45515;-78
2022/04/17 11:17:23;;;;;;;;;7.00;6.00;;;;;17.94;31.61;101883.66;5055513;28;45352;-77
2022/04/17 11:19:55;;;;;;;;;5.50;5.00;;;;;17.93;31.85;101879.25;5058672;28;45466;-76
2022/04/17 11:22:27;;;;;;;;;16.25;14.75;;;;;18.01;31.89;101870.75;5059301;28;45324;-78
2022/04/17 11:24:55;;;;;;;;;6.50;6.50;;;;;18.09;31.48;101878.03;5059302;28;45454;-77
2022/04/17 11:27:45;;;;;;;;;4.00;4.00;;;;;18.14;31.71;101872.03;5058869;28;45336;-79
2022/04/17 11:30:13;;;;;;;;;7.00;5.00;;;;;18.18;31.01;101864.31;5043335;28;45292;-79
2022/04/17 11:32:39;;;;;;;;;7.00;6.25;;;;;18.21;31.54;101864.38;5059220;28;45315;-78
2022/04/17 11:35:07;;;;;;;;;12.50;11.25;;;;;18.30;30.58;101862.91;5059723;28;45265;-81